Time;durP1;ratioP1;P1;durP2;ratioP2;P2;SDS_P1;SDS_P2;PMS_P1;PMS_P2;Temp;Humidity;BMP_temperature;BMP_pressure;BME280_temperature;BME280_humidity;BME280_pressure;Samples;Min_cycle;Max_cycle;Signal;HPM_P1;HPM_P2
2021/12/11 00:00:14;;;;;;;2.82;2.38;;;;;;;6.32;62.81;101752.82;460387;111;922504;-75
2021/12/11 00:01:24;;;;;;;5.23;2.53;;;;;;;6.32;62.76;101747.41;460962;114;922540;-76
2021/12/11 00:02:32;;;;;;;4.97;2.31;;;;;;;6.31;62.80;101752.97;460496;114;930560;-76
2021/12/11 00:03:39;;;;;;;5.37;2.59;;;;;;;6.32;62.80;101751.97;461154;111;922543;-75
2021/12/11 00:04:45;;;;;;;3.16;2.31;;;;;;;6.31;62.60;101756.53;462188;111;922498;-74
2021/12/11 00:05:58;;;;;;;2.77;2.43;;;;;;;6.31;62.59;101761.95;462105;111;923159;-74
2021/12/11 00:07:05;;;;;;;2.96;1.84;;;;;;;6.31;62.63;101758.39;461297;112;922969;-77
2021/12/11 00:08:10;;;;;;;4.56;2.93;;;;;;;6.32;62.78;101751.97;461098;111;923204;-75
2021/12/11 00:09:20;;;;;;;3.67;2.28;;;;;;;6.32;62.82;101760.09;459642;114;922722;-74
2021/12/11 00:10:29;;;;;;;3.48;2.10;;;;;;;6.34;62.68;101758.91;457352;114;923081;-74
2021/12/11 00:11:36;;;;;;;2.91;2.02;;;;;;;6.34;62.62;101758.09;448715;116;922853;-74
2021/12/11 00:12:46;;;;;;;2.78;2.11;;;;;;;6.34;62.62;101758.09;449201;114;922708;-75
2021/12/11 00:13:56;;;;;;;2.57;2.08;;;;;;;6.35;62.57;101757.05;457500;114;922567;-75
2021/12/11 00:15:08;;;;;;;2.42;2.06;;;;;;;6.34;62.45;101752.67;457858;114;922896;-75
2021/12/11 00:16:17;;;;;;;2.64;1.90;;;;;;;6.33;62.51;101750.97;457923;114;922640;-75
2021/12/11 00:17:27;;;;;;;3.57;2.39;;;;;;;6.32;62.50;101758.23;457503;114;923910;-76
2021/12/11 00:18:31;;;;;;;2.47;1.96;;;;;;;6.32;62.40;101757.39;457302;114;922759;-75
2021/12/11 00:19:36;;;;;;;3.24;2.14;;;;;;;6.30;62.36;101757.53;456969;114;922600;-75
2021/12/11 00:20:43;;;;;;;3.73;2.06;;;;;;;6.29;62.37;101753.13;457231;114;922860;-75
2021/12/11 00:21:48;;;;;;;2.92;2.02;;;;;;;6.28;62.30;101757.69;457739;114;922957;-75
2021/12/11 00:22:52;;;;;;;3.00;1.74;;;;;;;6.28;62.35;101754.16;457818;114;922558;-76
2021/12/11 00:24:02;;;;;;;3.05;1.71;;;;;;;6.26;62.36;101751.59;457951;114;923203;-76
2021/12/11 00:25:09;;;;;;;2.61;1.91;;;;;;;6.27;62.29;101745.18;458017;114;930581;-76
2021/12/11 00:26:16;;;;;;;2.26;1.91;;;;;;;6.27;62.24;101750.59;458312;112;922676;-75
2021/12/11 00:27:23;;;;;;;3.53;1.68;;;;;;;6.27;62.20;101749.74;457793;114;923069;-75
2021/12/11 00:28:27;;;;;;;3.69;2.01;;;;;;;6.26;62.23;101751.59;458042;114;922616;-75
2021/12/11 00:29:32;;;;;;;3.70;2.07;;;;;;;6.25;62.15;101751.75;459398;114;922949;-75
2021/12/11 00:30:39;;;;;;;2.87;2.02;;;;;;;6.24;62.13;101750.04;458758;114;922629;-75
2021/12/11 00:31:46;;;;;;;4.27;2.60;;;;;;;6.22;62.20;101760.20;459515;112;922525;-75
2021/12/11 00:33:02;;;;;;;4.07;2.32;;;;;;;6.22;62.25;101746.66;457938;114;922544;-75
2021/12/11 00:34:09;;;;;;;3.21;2.02;;;;;;;6.23;62.27;101751.89;457075;114;922517;-74
2021/12/11 00:35:16;;;;;;;5.18;1.99;;;;;;;6.24;62.17;101750.04;457314;114;922749;-75
2021/12/11 00:36:23;;;;;;;5.11;2.32;;;;;;;6.24;62.18;101753.61;457113;114;923315;-74
2021/12/11 00:37:27;;;;;;;6.14;2.42;;;;;;;6.25;62.17;101752.60;457459;114;923553;-76
2021/12/11 00:38:34;;;;;;;3.84;1.72;;;;;;;6.25;62.10;101763.44;457504;112;922775;-76
2021/12/11 00:39:48;;;;;;;5.04;2.08;;;;;;;6.26;62.00;101762.44;457571;114;922933;-75
2021/12/11 00:40:55;;;;;;;4.31;1.84;;;;;;;6.26;61.95;101765.14;457549;114;922720;-75
2021/12/11 00:42:03;;;;;;;4.21;1.90;;;;;;;6.24;62.05;101767.14;458060;112;922992;-75
2021/12/11 00:43:11;;;;;;;8.36;2.31;;;;;;;6.25;62.06;101765.29;458023;114;922610;-75
2021/12/11 00:44:14;;;;;;;3.78;2.06;;;;;;;6.24;61.98;101760.88;458734;114;922925;-74
2021/12/11 00:45:20;;;;;;;4.21;1.96;;;;;;;6.25;61.97;101759.88;458812;114;922587;-75
2021/12/11 00:46:30;;;;;;;2.56;1.60;;;;;;;6.24;61.95;101760.88;458303;112;922657;-76
2021/12/11 00:47:32;;;;;;;3.99;1.93;;;;;;;6.24;61.96;101763.58;457712;114;922718;-75
2021/12/11 00:48:37;;;;;;;2.84;1.92;;;;;;;6.24;61.97;101769.85;457917;114;922689;-75
2021/12/11 00:49:48;;;;;;;2.49;2.13;;;;;;;6.25;61.95;101751.75;456396;114;922630;-74
2021/12/11 00:50:55;;;;;;;4.00;2.06;;;;;;;6.24;61.90;101759.02;456069;114;922732;-76
2021/12/11 00:51:59;;;;;;;2.11;1.74;;;;;;;6.24;61.81;101761.73;457761;114;922684;-76
2021/12/11 00:53:21;;;;;;;4.47;2.12;;;;;;;6.24;61.81;101750.89;458580;114;922726;-75
2021/12/11 00:54:25;;;;;;;4.97;1.98;;;;;;;6.23;61.90;101756.45;457789;114;922762;-75
2021/12/11 00:55:35;;;;;;;7.53;2.15;;;;;;;6.23;61.77;101751.05;457613;114;922549;-76
2021/12/11 00:56:40;;;;;;;2.43;1.89;;;;;;;6.23;61.67;101762.73;457441;114;922765;-75
2021/12/11 00:57:46;;;;;;;2.29;1.95;;;;;;;6.21;61.62;101756.64;457276;114;922485;-76
2021/12/11 00:58:52;;;;;;;4.37;1.93;;;;;;;6.18;61.59;101750.67;458259;114;922521;-75
2021/12/11 01:00:02;;;;;;;2.58;1.82;;;;;;;6.18;61.59;101750.67;458923;114;922818;-76
2021/12/11 01:01:10;;;;;;;3.05;2.22;;;;;;;6.16;61.68;101750.85;457937;114;922677;-76
2021/12/11 01:02:14;;;;;;;3.16;2.16;;;;;;;6.16;61.78;101758.97;457342;114;922739;-74
2021/12/11 01:03:21;;;;;;;3.09;2.18;;;;;;;6.17;61.80;101755.27;459071;114;923656;-74
2021/12/11 01:04:28;;;;;;;3.33;1.95;;;;;;;6.18;61.79;101756.94;457972;114;922526;-75
2021/12/11 01:05:36;;;;;;;5.46;2.62;;;;;;;6.19;61.78;101761.35;458364;114;922666;-76
2021/12/11 01:06:48;;;;;;;5.61;2.48;;;;;;;6.19;61.73;101758.64;459174;114;922689;-76
2021/12/11 01:07:53;;;;;;;3.48;3.06;;;;;;;6.20;61.51;101759.50;458424;114;923067;-74
2021/12/11 01:09:00;;;;;;;3.59;2.47;;;;;;;6.20;61.51;101759.50;456387;114;922620;-74
2021/12/11 01:10:08;;;;;;;4.47;2.74;;;;;;;6.19;61.55;101763.20;457566;114;922796;-75
2021/12/11 01:11:18;;;;;;;5.76;2.57;;;;;;;6.17;61.60;101763.39;452408;114;922539;-74
2021/12/11 01:12:41;;;;;;;4.58;2.78;;;;;;;6.18;61.67;101756.09;456598;114;922990;-73
2021/12/11 01:13:45;;;;;;;3.97;2.62;;;;;;;6.17;61.70;101755.27;457330;114;922497;-75
2021/12/11 01:14:55;;;;;;;4.78;2.51;;;;;;;6.17;61.77;101757.12;456858;114;922720;-74
2021/12/11 01:16:05;;;;;;;2.99;2.14;;;;;;;6.18;61.84;101758.80;456662;112;923395;-75
2021/12/11 01:17:21;;;;;;;3.59;2.34;;;;;;;6.18;61.84;101759.65;457452;112;923026;-75
2021/12/11 01:18:35;;;;;;;3.40;2.17;;;;;;;6.20;61.96;101759.50;457693;114;923176;-74
2021/12/11 01:19:37;;;;;;;3.99;3.09;;;;;;;6.20;61.96;101759.50;457737;114;922936;-73
2021/12/11 01:22:20;;;;;;;4.11;3.17;;;;;;;6.35;62.01;101759.77;470479;110;947167;-74
2021/12/11 01:23:28;;;;;;;5.70;2.71;;;;;;;6.24;62.00;101759.02;462517;112;922957;-74
2021/12/11 01:24:31;;;;;;;4.80;2.96;;;;;;;6.25;61.97;101758.02;462182;112;922634;-74
2021/12/11 01:25:34;;;;;;;5.83;2.68;;;;;;;6.26;61.91;101757.02;463803;112;922710;-76
2021/12/11 01:26:47;;;;;;;4.11;2.16;;;;;;;6.24;61.99;101761.73;461907;112;922623;-74
2021/12/11 01:27:56;;;;;;;5.65;2.55;;;;;;;6.26;61.86;101764.29;461900;112;922874;-75
2021/12/11 01:29:00;;;;;;;2.92;2.18;;;;;;;6.26;61.86;101764.29;462421;112;922680;-75
2021/12/11 01:30:07;;;;;;;3.95;2.44;;;;;;;6.25;61.79;101760.73;463372;112;922674;-74
2021/12/11 01:31:14;;;;;;;3.01;2.54;;;;;;;6.23;61.73;101759.17;462550;112;922698;-75
2021/12/11 01:32:18;;;;;;;2.89;2.37;;;;;;;6.21;61.70;101761.20;461834;112;922599;-76
2021/12/11 01:33:22;;;;;;;4.44;2.49;;;;;;;6.19;61.72;101761.35;461795;112;922546;-75
2021/12/11 01:34:27;;;;;;;6.36;2.91;;;;;;;6.16;61.68;101761.69;461129;112;922888;-75
2021/12/11 01:35:31;;;;;;;2.93;2.48;;;;;;;6.14;61.76;101763.69;461332;112;930510;-75
2021/12/11 01:36:36;;;;;;;4.76;2.33;;;;;;;6.13;61.75;101761.98;461617;112;922699;-75
2021/12/11 01:37:40;;;;;;;4.48;2.73;;;;;;;6.12;61.72;101765.69;443592;117;922916;-75
2021/12/11 01:38:45;;;;;;;4.06;2.58;;;;;;;6.12;61.75;101756.75;461346;112;922612;-75
2021/12/11 01:39:51;;;;;;;4.48;2.55;;;;;;;6.11;61.77;101755.89;462373;112;922640;-75
2021/12/11 01:40:58;;;;;;;3.50;2.46;;;;;;;6.10;61.82;101756.89;461479;112;930674;-75
2021/12/11 01:42:07;;;;;;;4.18;2.34;;;;;;;6.10;61.76;101765.02;462082;112;922730;-74
2021/12/11 01:43:11;;;;;;;4.79;2.28;;;;;;;6.10;61.72;101762.31;463035;112;923035;-76
2021/12/11 01:44:18;;;;;;;3.51;2.32;;;;;;;6.10;61.76;101767.72;462249;112;923360;-76
2021/12/11 01:45:22;;;;;;;2.82;2.13;;;;;;;6.10;61.78;101769.58;463028;112;922661;-76
2021/12/11 01:46:27;;;;;;;3.67;2.42;;;;;;;6.11;61.79;101774.84;461844;112;922708;-75
2021/12/11 01:47:33;;;;;;;3.60;2.55;;;;;;;6.10;61.78;101765.02;463449;112;922562;-78
2021/12/11 01:48:41;;;;;;;2.92;1.93;;;;;;;6.10;61.74;101770.43;461143;112;930650;-75
2021/12/11 01:49:48;;;;;;;3.74;2.35;;;;;;;6.10;61.72;101769.58;460861;112;922736;-75
2021/12/11 01:50:57;;;;;;;4.69;2.33;;;;;;;6.10;61.65;101765.02;461147;112;922681;-76
2021/12/11 01:52:04;;;;;;;3.51;2.54;;;;;;;6.10;61.66;101766.88;460511;112;922648;-76
2021/12/11 01:53:20;;;;;;;3.76;2.64;;;;;;;6.09;61.67;101763.31;461454;112;922516;-74
2021/12/11 01:54:27;;;;;;;3.32;2.49;;;;;;;6.10;61.76;101774.99;461031;112;922515;-76
2021/12/11 01:55:36;;;;;;;2.87;2.18;;;;;;;6.10;61.76;101770.43;460144;112;922624;-75
2021/12/11 01:56:42;;;;;;;4.24;2.19;;;;;;;6.09;61.72;101778.70;460854;112;922681;-76
2021/12/11 01:57:50;;;;;;;4.06;3.08;;;;;;;6.09;61.72;101778.70;460375;112;922628;-75
2021/12/11 01:59:02;;;;;;;4.20;2.71;;;;;;;6.08;61.80;101779.70;461872;112;923535;-73
2021/12/11 02:00:11;;;;;;;4.17;2.43;;;;;;;6.08;61.80;101779.70;462335;112;922538;-75
2021/12/11 02:01:18;;;;;;;2.97;2.52;;;;;;;6.09;61.81;101776.00;461387;112;922705;-74
2021/12/11 02:02:28;;;;;;;4.01;2.26;;;;;;;6.08;61.81;101779.70;461029;112;922502;-75
2021/12/11 02:03:33;;;;;;;3.59;2.58;;;;;;;6.07;61.81;101781.56;461693;112;923343;-75
2021/12/11 02:04:40;;;;;;;4.76;2.81;;;;;;;6.07;61.84;101781.56;462035;112;922663;-75
2021/12/11 02:05:44;;;;;;;4.49;2.49;;;;;;;6.07;61.89;101784.27;462287;112;922685;-75
2021/12/11 02:06:50;;;;;;;4.63;2.69;;;;;;;6.08;61.82;101779.70;452766;116;922787;-75
2021/12/11 02:07:56;;;;;;;4.05;2.65;;;;;;;6.08;61.83;101777.84;461492;112;922683;-74
2021/12/11 02:09:13;;;;;;;3.12;2.62;;;;;;;6.08;61.80;101771.58;461400;112;922621;-74
2021/12/11 02:10:20;;;;;;;4.34;2.84;;;;;;;6.08;61.80;101771.58;462647;112;922515;-75
2021/12/11 02:11:29;;;;;;;3.59;2.53;;;;;;;6.08;61.73;101774.28;461566;112;922721;-75
2021/12/11 02:12:38;;;;;;;4.83;2.48;;;;;;;6.08;61.73;101775.14;461750;112;922768;-76
2021/12/11 02:13:48;;;;;;;5.93;2.92;;;;;;;6.07;61.60;101783.41;461861;112;922938;-75
2021/12/11 02:14:52;;;;;;;3.69;2.84;;;;;;;6.04;61.58;101778.32;461111;112;923024;-74
2021/12/11 02:15:56;;;;;;;3.07;2.67;;;;;;;6.02;61.64;101783.03;461306;112;922574;-75
2021/12/11 02:17:02;;;;;;;3.46;2.84;;;;;;;6.00;61.67;101776.94;460985;112;922897;-73
2021/12/11 02:18:12;;;;;;;3.03;2.61;;;;;;;5.99;61.67;101777.94;461150;112;922626;-75
2021/12/11 02:19:19;;;;;;;3.88;3.51;;;;;;;5.98;61.69;101784.36;460909;112;923586;-75
2021/12/11 02:20:31;;;;;;;3.19;2.77;;;;;;;5.96;61.82;101784.50;452077;115;922620;-77
2021/12/11 02:21:57;;;;;;;4.61;2.88;;;;;;;5.95;61.88;101785.54;460145;112;922709;-74
2021/12/11 02:23:00;;;;;;;3.55;2.94;;;;;;;5.92;62.05;101777.70;450711;115;922616;-74
2021/12/11 02:24:07;;;;;;;5.49;3.62;;;;;;;5.92;62.05;101777.70;453461;115;923139;-75
2021/12/11 02:25:14;;;;;;;3.68;3.02;;;;;;;5.92;61.82;101787.69;452145;115;923202;-75
2021/12/11 02:26:18;;;;;;;4.53;3.33;;;;;;;5.90;61.86;101779.70;451907;115;922588;-74
2021/12/11 02:27:31;;;;;;;4.12;2.77;;;;;;;5.89;61.84;101786.16;452836;115;922362;-74
2021/12/11 02:28:41;;;;;;;4.78;2.86;;;;;;;5.88;61.78;101789.86;452174;115;922633;-74
2021/12/11 02:29:48;;;;;;;4.97;3.12;;;;;;;5.86;61.80;101789.13;452546;115;922734;-75
2021/12/11 02:31:00;;;;;;;5.03;3.35;;;;;;;5.86;61.81;101786.41;452180;115;930231;-76
2021/12/11 02:32:16;;;;;;;5.01;3.60;;;;;;;5.85;61.84;101792.83;452327;115;922864;-74
2021/12/11 02:33:29;;;;;;;3.41;3.11;;;;;;;5.85;61.87;101792.83;452391;115;922910;-75
2021/12/11 02:34:39;;;;;;;4.22;3.14;;;;;;;5.84;61.84;101791.97;452268;115;922650;-74
2021/12/11 02:36:01;;;;;;;3.57;2.98;;;;;;;5.84;61.86;101793.86;452556;115;923318;-76
2021/12/11 02:37:11;;;;;;;5.13;3.07;;;;;;;5.83;61.85;101793.00;452254;115;923247;-74
2021/12/11 02:38:24;;;;;;;3.82;3.04;;;;;;;5.83;61.83;101797.56;451054;115;922979;-75
2021/12/11 02:39:37;;;;;;;4.35;3.56;;;;;;;5.80;61.89;101787.03;451494;115;930681;-75
2021/12/11 02:40:56;;;;;;;4.41;2.93;;;;;;;5.80;61.93;101787.88;439006;119;922749;-75
2021/12/11 02:42:09;;;;;;;5.53;3.68;;;;;;;5.80;61.75;101792.44;442205;117;922917;-72
2021/12/11 02:43:16;;;;;;;9.91;2.81;;;;;;;5.78;61.67;101787.20;441817;117;923012;-75
2021/12/11 02:44:41;;;;;;;5.46;2.81;;;;;;;5.75;61.73;101790.20;443101;117;922823;-75
2021/12/11 02:45:51;;;;;;;3.29;2.99;;;;;;;5.73;61.77;101784.08;443202;117;922543;-75
2021/12/11 02:47:16;;;;;;;6.08;2.89;;;;;;;5.74;61.82;101790.34;429921;121;922519;-76
2021/12/11 02:48:23;;;;;;;4.21;3.58;;;;;;;5.73;61.82;101792.20;437002;119;922912;-76
2021/12/11 02:49:42;;;;;;;3.14;2.84;;;;;;;5.73;61.82;101794.91;444318;117;922584;-74
2021/12/11 02:50:52;;;;;;;4.97;3.43;;;;;;;5.72;61.81;101797.79;434489;119;922582;-75
2021/12/11 02:52:02;;;;;;;4.09;3.14;;;;;;;5.72;61.83;101798.64;434755;119;922641;-73
2021/12/11 02:53:15;;;;;;;5.03;3.34;;;;;;;5.73;61.83;101803.03;433691;120;922620;-75
2021/12/11 02:54:31;;;;;;;4.27;3.37;;;;;;;5.74;61.87;101801.17;435140;119;922586;-74
2021/12/11 02:55:43;;;;;;;4.47;3.45;;;;;;;5.74;61.85;101801.17;435823;119;922785;-73
2021/12/11 02:56:50;;;;;;;5.45;3.45;;;;;;;5.72;61.88;101793.23;441183;117;922542;-75
2021/12/11 02:57:57;;;;;;;3.53;2.57;;;;;;;5.71;61.93;101794.23;442213;117;922801;-75
2021/12/11 02:59:04;;;;;;;4.22;3.18;;;;;;;5.72;61.86;101800.49;435337;119;922682;-76
2021/12/11 03:00:18;;;;;;;4.16;3.28;;;;;;;5.71;61.88;101796.94;435374;119;922656;-76
2021/12/11 03:01:29;;;;;;;5.13;3.12;;;;;;;5.73;61.85;101799.50;438639;119;922723;-75
2021/12/11 03:02:32;;;;;;;;;;;;;;;5.72;61.71;101803.20;442080;119;922270;-74
2021/12/11 03:03:41;;;;;;;3.31;3.00;;;;;;;5.70;61.63;101792.52;437418;119;922397;-74
2021/12/11 03:04:51;;;;;;;3.20;2.90;;;;;;;5.67;61.65;101791.99;438018;119;923104;-75
2021/12/11 03:06:04;;;;;;;4.08;3.44;;;;;;;5.64;61.82;101786.87;436940;119;922666;-77
2021/12/11 03:07:02;;;;;;;3.22;2.93;;;;;;;5.63;61.89;101794.13;437343;119;922868;-74
2021/12/11 03:08:07;;;;;;;5.73;3.27;;;;;;;5.62;61.83;101781.63;436948;119;922725;-75
2021/12/11 03:09:13;;;;;;;3.84;3.24;;;;;;;5.62;61.82;101784.34;437717;119;922866;-74
2021/12/11 03:10:21;;;;;;;6.09;3.51;;;;;;;5.63;61.85;101782.45;437464;119;922467;-75
2021/12/11 03:11:27;;;;;;;5.47;2.99;;;;;;;5.62;61.84;101788.89;437257;119;923447;-75
2021/12/11 03:12:30;;;;;;;3.48;3.01;;;;;;;5.62;61.84;101780.78;438196;119;922851;-75
2021/12/11 03:13:34;;;;;;;7.67;3.17;;;;;;;5.62;61.87;101792.45;437825;119;922884;-75
2021/12/11 03:14:39;;;;;;;3.50;3.08;;;;;;;5.63;61.88;101798.69;438827;119;922607;-75
2021/12/11 03:15:42;;;;;;;3.33;2.68;;;;;;;5.62;61.86;101797.87;437894;119;922408;-75
2021/12/11 03:16:50;;;;;;;3.39;3.09;;;;;;;5.62;61.86;101795.16;438160;119;922224;-75
2021/12/11 03:17:53;;;;;;;3.64;2.62;;;;;;;5.61;61.88;101793.45;437864;119;930266;-73
2021/12/11 03:18:58;;;;;;;3.34;2.67;;;;;;;5.62;61.97;101794.31;438473;119;922466;-75
2021/12/11 03:20:05;;;;;;;5.32;2.99;;;;;;;5.63;61.96;101799.55;437818;119;930403;-75
2021/12/11 03:21:09;;;;;;;4.35;2.92;;;;;;;5.63;61.96;101788.72;437923;119;922575;-74
2021/12/11 03:22:16;;;;;;;3.26;2.88;;;;;;;5.64;62.03;101803.95;439682;116;922711;-76
2021/12/11 03:23:20;;;;;;;5.17;3.18;;;;;;;5.64;62.07;101801.25;461862;112;922760;-75
2021/12/11 03:24:26;;;;;;;4.49;2.92;;;;;;;5.66;62.16;101801.11;462142;112;922555;-75
2021/12/11 03:25:30;;;;;;;5.40;2.69;;;;;;;5.67;62.08;101803.67;461694;112;922662;-75
2021/12/11 03:26:38;;;;;;;4.09;2.81;;;;;;;5.68;62.03;101794.52;462834;112;922599;-74
2021/12/11 03:27:42;;;;;;;2.48;2.26;;;;;;;5.69;62.02;101789.96;461779;112;922564;-75
2021/12/11 03:28:46;;;;;;;3.46;3.16;;;;;;;5.70;61.95;101797.08;462460;112;922938;-75
2021/12/11 03:29:49;;;;;;;2.97;2.68;;;;;;;5.69;61.93;101787.25;463049;112;923055;-75
2021/12/11 03:30:58;;;;;;;3.32;2.31;;;;;;;5.69;61.94;101788.11;461452;112;930546;-75
2021/12/11 03:32:03;;;;;;;3.02;2.78;;;;;;;5.68;61.92;101789.11;462253;112;922622;-74
2021/12/11 03:33:10;;;;;;;2.63;2.34;;;;;;;5.69;61.92;101789.96;462134;112;923133;-75
2021/12/11 03:34:17;;;;;;;4.37;3.13;;;;;;;5.69;61.98;101792.67;452307;115;922820;-74
2021/12/11 03:35:21;;;;;;;3.21;2.74;;;;;;;5.69;61.96;101792.67;462744;112;922496;-74
2021/12/11 03:36:27;;;;;;;3.71;2.67;;;;;;;5.67;62.01;101790.14;452090;116;922982;-74
2021/12/11 03:37:30;;;;;;;3.10;2.52;;;;;;;5.68;62.10;101790.99;444545;117;922832;-75
2021/12/11 03:38:37;;;;;;;5.89;3.15;;;;;;;5.69;62.09;101795.38;449932;115;930527;-76
2021/12/11 03:39:44;;;;;;;3.24;2.71;;;;;;;5.70;62.09;101791.67;461491;112;930572;-74
2021/12/11 03:40:47;;;;;;;6.16;3.07;;;;;;;5.71;62.09;101793.37;462509;112;922728;-75
2021/12/11 03:41:53;;;;;;;3.96;2.82;;;;;;;5.74;62.04;101793.91;461515;112;922727;-75
2021/12/11 03:43:00;;;;;;;3.99;3.13;;;;;;;5.75;61.98;101802.87;453336;116;922958;-74
2021/12/11 03:44:05;;;;;;;4.11;3.30;;;;;;;5.77;61.92;101807.15;462099;112;922631;-75
2021/12/11 03:45:15;;;;;;;4.84;2.93;;;;;;;5.77;61.84;101800.88;461887;112;922549;-75
2021/12/11 03:46:19;;;;;;;5.13;3.62;;;;;;;5.77;61.80;101806.30;451316;116;923063;-75
2021/12/11 03:47:26;;;;;;;3.87;3.47;;;;;;;5.76;61.86;101802.73;452347;116;923049;-75
2021/12/11 03:48:33;;;;;;;3.48;2.89;;;;;;;5.77;61.86;101801.73;460760;112;922538;-75
2021/12/11 03:49:37;;;;;;;3.96;3.02;;;;;;;5.77;61.88;101801.73;462742;112;922743;-74
2021/12/11 03:50:41;;;;;;;4.09;2.93;;;;;;;5.78;61.78;101802.59;452467;115;922533;-73
2021/12/11 03:51:48;;;;;;;4.18;2.70;;;;;;;5.77;61.72;101801.73;462268;112;922532;-75
2021/12/11 03:52:52;;;;;;;4.50;3.16;;;;;;;5.78;61.66;101799.89;461253;112;923265;-75
2021/12/11 03:53:55;;;;;;;3.65;3.28;;;;;;;5.76;61.67;101808.14;461403;112;922995;-75
2021/12/11 03:54:59;;;;;;;3.87;3.25;;;;;;;5.76;61.69;101804.59;451764;115;922910;-74
2021/12/11 03:56:07;;;;;;;3.64;3.11;;;;;;;5.76;61.69;101804.59;460544;112;922684;-74
2021/12/11 03:57:15;;;;;;;5.46;3.17;;;;;;;5.74;61.57;101818.27;460652;112;922619;-73
2021/12/11 03:58:19;;;;;;;3.45;2.99;;;;;;;5.70;61.59;101811.47;460291;112;922846;-76
2021/12/11 03:59:23;;;;;;;3.56;3.26;;;;;;;5.66;61.57;101807.38;461459;112;922626;-74
2021/12/11 04:00:40;;;;;;;6.86;2.42;;;;;;;5.63;61.48;101809.52;460987;112;922551;-76
2021/12/11 04:01:47;;;;;;;3.60;3.02;;;;;;;5.59;61.68;101808.98;461347;112;930510;-74
2021/12/11 04:02:52;;;;;;;5.32;2.85;;;;;;;5.59;61.68;101808.98;460692;112;922715;-75
2021/12/11 04:04:09;;;;;;;4.67;3.40;;;;;;;5.56;61.78;101798.47;462693;112;922228;-75
2021/12/11 04:05:13;;;;;;;3.68;3.33;;;;;;;5.56;61.98;101808.44;461078;112;922577;-74
2021/12/11 04:06:18;;;;;;;4.79;3.19;;;;;;;5.57;62.13;101807.45;461600;112;922333;-76
2021/12/11 04:07:24;;;;;;;3.28;2.91;;;;;;;5.59;62.14;101805.42;461287;112;923101;-76
2021/12/11 04:08:34;;;;;;;3.33;3.03;;;;;;;5.59;62.09;101803.56;450987;115;922997;-74
2021/12/11 04:09:37;;;;;;;5.09;3.38;;;;;;;5.61;62.08;101798.02;461430;112;922681;-75
2021/12/11 04:10:41;;;;;;;6.19;2.99;;;;;;;5.62;62.13;101797.87;461507;112;923196;-74
2021/12/11 04:11:46;;;;;;;5.02;3.35;;;;;;;5.63;62.09;101795.98;462118;112;923307;-75
2021/12/11 04:12:49;;;;;;;4.24;3.12;;;;;;;5.64;62.06;101803.95;462439;112;923162;-75
2021/12/11 04:13:56;;;;;;;3.89;3.31;;;;;;;5.65;62.00;101799.40;451877;116;922945;-73
2021/12/11 04:15:00;;;;;;;4.36;3.02;;;;;;;5.65;61.89;101804.81;451917;116;930491;-76
2021/12/11 04:16:06;;;;;;;4.04;2.95;;;;;;;5.64;61.83;101803.10;462144;112;922546;-76
2021/12/11 04:17:12;;;;;;;4.31;3.78;;;;;;;5.64;61.88;101797.69;462148;112;922860;-75
2021/12/11 04:18:16;;;;;;;4.97;4.05;;;;;;;5.65;61.93;101810.22;461795;112;922577;-73
2021/12/11 04:19:21;;;;;;;4.06;3.66;;;;;;;5.65;61.87;101797.55;463234;112;923133;-75
2021/12/11 04:20:27;;;;;;;3.91;3.32;;;;;;;5.65;61.80;101813.78;460964;112;930643;-75
2021/12/11 04:21:32;;;;;;;6.09;3.79;;;;;;;5.65;61.72;101805.66;461406;112;922669;-74
2021/12/11 04:22:36;;;;;;;5.24;3.41;;;;;;;5.64;61.63;101803.10;460018;112;922701;-72
2021/12/11 04:23:40;;;;;;;3.94;3.27;;;;;;;5.61;61.59;101806.98;453207;115;922592;-73
2021/12/11 04:24:45;;;;;;;3.93;3.50;;;;;;;5.58;61.58;101801.00;452986;115;930636;-74
2021/12/11 04:25:51;;;;;;;4.48;3.29;;;;;;;5.57;61.50;101807.45;452076;115;922620;-74
2021/12/11 04:26:56;;;;;;;3.29;2.99;;;;;;;5.54;61.45;101816.70;452473;115;922577;-76
2021/12/11 04:28:00;;;;;;;4.87;3.86;;;;;;;5.51;61.52;101813.46;452796;115;922783;-74
2021/12/11 04:29:05;;;;;;;6.15;3.75;;;;;;;5.49;61.52;101816.31;453008;115;923197;-74
2021/12/11 04:30:11;;;;;;;4.82;3.99;;;;;;;5.46;61.55;101822.00;452616;115;923172;-74
2021/12/11 04:31:18;;;;;;;7.01;3.99;;;;;;;5.43;61.58;101817.77;453483;115;923261;-74
2021/12/11 04:32:24;;;;;;;4.77;3.90;;;;;;;5.42;61.62;101821.47;454121;115;922986;-74
2021/12/11 04:33:27;;;;;;;4.89;3.61;;;;;;;5.40;61.55;101815.34;452861;115;922667;-76
2021/12/11 04:34:33;;;;;;;5.11;3.50;;;;;;;5.37;61.45;101823.78;453735;115;922705;-76
2021/12/11 04:35:38;;;;;;;5.24;3.88;;;;;;;5.33;61.59;101819.68;453073;115;922787;-76
2021/12/11 04:36:45;;;;;;;3.87;3.48;;;;;;;5.30;61.58;101817.26;453846;115;922590;-75
2021/12/11 04:37:49;;;;;;;5.18;3.72;;;;;;;5.28;61.57;101813.88;453118;115;922648;-75
2021/12/11 04:38:53;;;;;;;6.02;3.72;;;;;;;5.25;61.66;101816.86;454024;115;922704;-74
2021/12/11 04:40:02;;;;;;;5.21;4.09;;;;;;;5.23;61.74;101816.18;446913;117;923345;-74
2021/12/11 04:41:07;;;;;;;4.10;3.30;;;;;;;5.22;61.79;101817.17;446818;115;930726;-75
2021/12/11 04:42:21;;;;;;;4.20;3.38;;;;;;;5.21;61.73;101810.06;454402;115;922874;-74
2021/12/11 04:43:22;;;;;;;3.92;2.94;;;;;;;5.19;61.77;101812.05;452338;115;922590;-75
2021/12/11 04:44:32;;;;;;;4.84;3.11;;;;;;;5.19;61.76;101805.79;452436;115;922620;-76
2021/12/11 04:45:38;;;;;;;3.87;2.93;;;;;;;5.18;61.83;101821.19;452553;115;922781;-74
2021/12/11 04:46:42;;;;;;;5.03;3.74;;;;;;;5.18;61.93;101812.22;453292;115;922552;-75
2021/12/11 04:47:54;;;;;;;2.86;2.62;;;;;;;5.17;61.88;101794.30;453338;115;922559;-75
2021/12/11 04:49:09;;;;;;;3.73;2.94;;;;;;;5.15;61.85;101798.98;453073;115;930526;-74
2021/12/11 04:50:18;;;;;;;5.98;3.27;;;;;;;5.13;61.97;101801.02;451313;115;922982;-74
2021/12/11 04:52:34;;;;;;;4.13;3.18;;;;;;;5.14;62.11;101798.13;453637;115;923141;-75
2021/12/11 05:02:20;;;;;;;2.67;2.41;;;;;;;5.21;61.80;101801.95;438483;119;922628;-75
2021/12/11 05:08:38;;;;;;;3.61;2.30;;;;;;;5.20;61.63;101794.83;438136;119;923609;-75
2021/12/11 05:09:27;;;;;;;2.36;2.13;;;;;;;5.20;61.49;101797.53;438733;119;922674;-75
2021/12/11 05:11:48;;;;;;;3.62;2.13;;;;;;;5.25;61.27;101800.64;470789;110;947044;-75
2021/12/11 05:12:50;;;;;;;7.44;2.83;;;;;;;5.13;61.29;101796.42;463559;113;922711;-75
2021/12/11 05:13:54;;;;;;;2.45;2.25;;;;;;;5.12;61.26;101797.45;462971;113;922957;-75
2021/12/11 05:14:57;;;;;;;11.36;2.76;;;;;;;5.11;61.06;101803.85;460812;113;922571;-74
2021/12/11 05:16:04;;;;;;;4.48;2.45;;;;;;;5.09;61.01;101800.44;456762;114;923084;-73
2021/12/11 05:17:08;;;;;;;2.53;2.25;;;;;;;5.07;60.95;101809.72;457470;114;930570;-74
2021/12/11 05:18:15;;;;;;;2.63;2.40;;;;;;;5.04;60.96;101808.14;457743;114;923170;-75
2021/12/11 05:19:18;;;;;;;2.64;2.19;;;;;;;5.02;61.02;101804.73;457374;114;922771;-79
2021/12/11 05:20:25;;;;;;;2.84;2.64;;;;;;;5.02;60.99;101810.98;458626;113;922718;-74
2021/12/11 05:21:29;;;;;;;2.29;2.12;;;;;;;5.03;60.97;101809.14;457318;114;930542;-76
2021/12/11 05:22:33;;;;;;;2.92;2.29;;;;;;;5.01;60.78;101814.72;456921;114;922885;-75
2021/12/11 05:23:37;;;;;;;2.15;1.96;;;;;;;5.01;60.76;101820.13;456804;114;922569;-76
2021/12/11 05:24:44;;;;;;;2.54;2.34;;;;;;;5.01;60.76;101824.67;456152;114;922819;-75
2021/12/11 05:25:48;;;;;;;2.66;1.81;;;;;;;5.00;60.81;101822.97;456823;114;922654;-76
2021/12/11 05:26:51;;;;;;;2.47;1.61;;;;;;;5.00;60.79;101818.41;458862;114;922609;-75
2021/12/11 05:27:55;;;;;;;2.56;2.32;;;;;;;5.01;60.75;101825.53;459099;114;922758;-73
2021/12/11 05:28:58;;;;;;;2.25;2.10;;;;;;;5.03;60.68;101830.77;459066;114;922533;-75
2021/12/11 05:30:06;;;;;;;4.34;2.45;;;;;;;5.03;60.56;101828.06;457628;114;922979;-77